LEGE/GRO METAR and TAF weather

Enter ICAO airport designator
Station Type Date Time Source
LEGE METAR 2020/10/29 16:30 UTC NOAA

LEGE 291630Z 17005KT 9999 FEW030 17/14 Q1025


Station Type Date Time Source
LEGE Decoded METAR 2020/10/29 16:30 UTC NOAA

Gerona / Costa Brava, Spain (LEGE) 41-54N 002-46E 129M
Oct 29, 2020 - 12:30 PM EDT / 2020.10.29 1630 UTC
Wind: from the S (170 degrees) at 6 MPH (5 KT):0
Visibility: greater than 7 mile(s):0
Sky conditions: mostly clear
Temperature: 62 F (17 C)
Dew Point: 57 F (14 C)
Relative Humidity: 82%
Pressure (altimeter): 30.27 in. Hg (1025 hPa)
ob: LEGE 291630Z 17005KT 9999 FEW030 17/14 Q1025
cycle: 16

Station Type Date Time Source
LEGE TAF 2020/10/29 12:41 UTC NOAA

TAF
AMD LEGE 291231Z 2912/3012 18009KT 9999 FEW025 TX23/2913Z TN09/3005Z
BECMG 2916/2918 VRB04KT PROB40
TEMPO 2920/3007 2000 BR BKN010

Example: see airport list